Pilot Point, Texas
Current Conditions -  °F | °C
As of 11:53 AM on Thursday 18 Dec 2014 (Local Time) from KDTO Reporting Station
Haze Haze  
Wind Chill: 46°   Ceiling: 500
Heat Index: 46°   Visibility: 6mi
Dew Point: 44°   Wind: 0mph
Humidity: 93%   Direction: NA
Pressure: 30.16"   Gusts: NA
Location:  33.4°N, 96.96°W
Report Text: KDTO 181753Z 00000KT 6SM BR OVC005 08/07 A3016 RMK AO2 SLP214 T00780067 10078 20056 58003
Loading
Personal Weather Stations






























Interactive Weather Map New forecast layout! Learn more

10-Day Weather Forecast

Advertisements
Track Severe Weather on mobile